Tiempo atmosférico en la estación meteorológica de Sena de Luna, Miñera, León (1120 m.)



Fecha
DESCASC
Temp. máxima en grados centígrados (hora)
DESCASC
Temp. mínima en grados centígrados (hora)
DESCASC
Temp. media en grados centígrados
DESCASC
Racha de viento máxima en m/sg (hora)
DESCASC
Velocidad máxima media en intervalos de 10 minutos(hora)
DESCASC
Precipitaciones diarias en mm
DESCASC
Precipitaciones de 00:00 a 06:00 en mm
DESCASC
Precipitaciones de 06:00 a 12:00 en mm
DESCASC
Precipitaciones de 12:00 a 18:00 en mm
DESCASC
Precipitaciones de 18:00 a 24:00 en mm
DESCASC

Gráficas

Temp. máximas Temp. mínimas Temp. medias Precipitaciones Rachas de viento máximas Velocidades máximas media en intervalos de 10 minutos

Datos horarios

Fecha y hora oficial Temperatura (ºC) Velocidad del viento (km/h) Dirección del viento Racha (km/h) Dirección de racha Precipitación (mm) Presión (hPa) Tendencia (hPa) Humedad (%)
2020-04-07 23:00:00 8.9 0 Calma 8 Norte 0 -- -- 100
2020-04-07 22:00:00 9.3 2 Nordeste 12 Nordeste 1.6 -- -- 100
2020-04-07 21:00:00 10 5 Sudeste 18 Sudoeste 5 -- -- 100
2020-04-07 20:00:00 12.8 5 Noroeste 8 Sur 0 -- -- 80
2020-04-07 19:00:00 13.7 3 Sudeste 19 Sur 0 -- -- 76
2020-04-07 18:00:00 13.2 12 Sur 28 Sudeste 0 -- -- 76
2020-04-07 17:00:00 12.5 9 Sudeste 15 Sur 0 -- -- 85
2020-04-07 16:00:00 11 11 Sur 21 Sur 0.2 -- -- 100
2020-04-07 15:00:00 11.4 14 Sur 19 Sur 0 -- -- 91
2020-04-07 14:00:00 11.7 11 Sur 23 Sur 0 -- -- 89
2020-04-07 13:00:00 10.5 12 Sur 23 Sur 0 -- -- 92
2020-04-07 12:00:00 9.6 11 Sudoeste 18 Sur 0 -- -- 99
2020-04-07 11:00:00 9 13 Sur 15 Sudoeste 0 -- -- 100
2020-04-07 10:00:00 9.1 3 Sudoeste 6 Sur 0 -- -- 100
2020-04-07 09:00:00 7.3 3 Este 5 Este 0 -- -- 100
2020-04-07 08:00:00 6.7 0 Calma 2 Nordeste 0.2 -- -- 100
2020-04-07 07:00:00 6.7 0 Calma 9 Sur 0 -- -- 100
2020-04-07 06:00:00 6.7 7 Sur 10 Sudoeste 0 -- -- 100
2020-04-07 05:00:00 7.2 5 Sudoeste 14 Sur 0 -- -- 100
2020-04-07 04:00:00 7.4 12 Sur 18 Sur -- -- -- 100
2020-04-07 03:00:00 7.8 9 Sur 18 Sur 0 -- -- 96
2020-04-07 02:00:00 7.8 6 Sur 11 Sur 0 -- -- 100
2020-04-07 01:00:00 7.8 3 Sur 9 Sur 0 -- -- 99
2020-04-07 00:00:00 8 4 Sur 12 Sudoeste 0 -- -- 99
2020-04-06 23:00:00 8.2 7 Sur 15 Sur 0.2 -- -- 99
2020-04-06 22:00:00 8.6 5 Este 12 Sur 0 -- -- 93
2020-04-06 21:00:00 9.3 5 Sudeste 15 Este 0 -- -- 83
2020-04-06 20:00:00 10.1 3 Sudeste 11 Sur 0 -- -- 74
2020-04-06 19:00:00 10.2 8 Sur 23 Sur 0 -- -- 75
2020-04-06 18:00:00 10.4 15 Sur 29 Sur 0 -- -- 70
2020-04-06 17:00:00 11.2 17 Sudoeste 32 Sur 0.6 -- -- 74
2020-04-06 16:00:00 13.6 3 Sudoeste 9 Noroeste 0 -- -- 70
2020-04-06 15:00:00 12.5 3 Sudoeste 12 Oeste 0 -- -- 69
2020-04-06 14:00:00 13 5 Oeste 15 Noroeste 0 -- -- 66
2020-04-06 13:00:00 12 5 Oeste 16 Norte 0 -- -- 75
2020-04-06 12:00:00 11.1 5 Oeste 18 Noroeste 0 -- -- 87
2020-04-06 11:00:00 7.9 7 Oeste 23 Noroeste 0.6 -- -- 97
2020-04-06 10:00:00 8.5 4 Noroeste 10 Noroeste 1.2 -- -- 100
2020-04-06 09:00:00 8.5 0 Calma 4 Sudeste 0.6 -- -- 100
2020-04-06 08:00:00 8.2 0 Calma 5 Sur 0 -- -- 100
2020-04-06 07:00:00 8.1 0 Calma 10 Sur 0 -- -- 100
2020-04-06 06:00:00 8.4 3 Sudeste 14 Sur 0 -- -- 100
2020-04-06 05:00:00 8.5 9 Sur 17 Sur 0 -- -- 100
2020-04-06 04:00:00 8.5 4 Sudeste 21 Sudeste 0.2 -- -- 100
2020-04-06 03:00:00 8.6 6 Sudeste 18 Sudeste 0 -- -- 100
2020-04-06 02:00:00 8.6 6 Sudeste 17 Este 0.2 -- -- 100
2020-04-06 01:00:00 8.3 8 Sudeste 23 Este 0.2 -- -- 100
2020-04-06 00:00:00 8.1 6 Este 20 Sudeste 0 -- -- 100
2020-04-05 23:00:00 8.6 8 Sudeste 20 Sudeste 0 -- -- 95
2020-04-05 22:00:00 8.6 6 Sur 26 Sur 0 -- -- 95
2020-04-05 21:00:00 8.8 14 Sur 46 Sur 0 -- -- 95
2020-04-05 20:00:00 9.1 20 Sur 52 Sur 0.4 -- -- 96
2020-04-05 19:00:00 9 26 Sur 42 Sur 2.2 -- -- 100
2020-04-05 18:00:00 8.8 23 Sur 45 Sur 2.6 -- -- 100
2020-04-05 17:00:00 8.8 28 Sur 48 Sur 2 -- -- 100
2020-04-05 16:00:00 8.8 16 Sudeste 40 Sudeste 0.4 -- -- 99
2020-04-05 15:00:00 8.2 15 Sudeste 28 Sudeste 1.2 -- -- 99
2020-04-05 14:00:00 7.9 11 Sudeste 32 Sudeste 0.6 -- -- 99
2020-04-05 13:00:00 7.3 19 Sudeste 39 Este 0 -- -- 100
2020-04-05 12:00:00 7.3 19 Sudeste 39 Sur 0.4 -- -- 97
2020-04-05 11:00:00 7.4 18 Sudeste 44 Sur 0.4 -- -- 95
2020-04-05 10:00:00 7.3 28 Sur 59 Sur 0 -- -- 93
2020-04-05 09:00:00 7.5 25 Sudeste 49 Sudeste 0 -- -- 89
2020-04-05 08:00:00 7.6 18 Sudeste 51 Este 0 -- -- 86
2020-04-05 07:00:00 8.1 20 Sudeste 48 Sudeste 0 -- -- 81
2020-04-05 06:00:00 8.2 21 Sudeste 44 Sudeste 0 -- -- 77
2020-04-05 05:00:00 8.8 16 Sudeste 45 Este 0 -- -- 71
2020-04-05 04:00:00 8.9 17 Sudeste 35 Sudeste 0 -- -- 69
2020-04-05 03:00:00 9.2 17 Sudeste 38 Este 0 -- -- 66
2020-04-05 02:00:00 9.6 18 Sudeste 44 Sur 0 -- -- 62
2020-04-05 01:00:00 9.8 19 Sur 46 Sur 0 -- -- 60
2020-04-05 00:00:00 10.3 21 Sur 43 Sur 0 -- -- 60
2020-04-04 23:00:00 10.7 22 Sur 48 Sur 0 -- -- 57
2020-04-04 22:00:00 11.3 21 Sudeste 41 Sudeste 0 -- -- 52
2020-04-04 21:00:00 11.7 15 Sudeste 30 Sudeste 0 -- -- 53
2020-04-04 20:00:00 12 16 Sur 42 Sur 0 -- -- 52
2020-04-04 19:00:00 12.9 17 Sudeste 45 Sudeste 0 -- -- 43
2020-04-04 18:00:00 13 16 Sudeste 40 Sur 0 -- -- 52
2020-04-04 17:00:00 13.2 17 Sur 50 Sur 0 -- -- 48
2020-04-04 16:00:00 13 30 Sur 53 Sur 0 -- -- 46
2020-04-04 15:00:00 12.9 19 Sur 47 Sur 0 -- -- 44
2020-04-04 14:00:00 11.6 31 Sur 45 Sur 0 -- -- 52
2020-04-04 13:00:00 11.7 24 Sur 40 Sur 0 -- -- 55
2020-04-04 12:00:00 11 21 Sur 27 Sur 0 -- -- 59
2020-04-04 11:00:00 9.8 2 Sudeste 6 Sur 0 -- -- 62
2020-04-04 10:00:00 6.5 0 Calma 5 Este 0 -- -- 69
2020-04-04 09:00:00 -0.9 0 Calma 3 Nordeste 0 -- -- 100
2020-04-04 08:00:00 -1.3 0 Calma 4 Este 0 -- -- 100
2020-04-04 07:00:00 -1.2 2 Nordeste 4 Nordeste 0 -- -- 100
2020-04-04 06:00:00 -0.9 2 Nordeste 5 Norte 0 -- -- 100
2020-04-04 05:00:00 0.2 0 Calma 5 Noroeste 0 -- -- 100
2020-04-04 04:00:00 0.7 0 Calma 5 Nordeste 0 -- -- 95
2020-04-04 03:00:00 1.4 0 Calma 7 Este 0 -- -- 93
2020-04-04 02:00:00 1.9 0 Calma 3 Sudoeste 0 -- -- 93
2020-04-04 01:00:00 2.9 0 Calma 5 Este 0 -- -- 87
2020-04-04 00:00:00 3.1 3 Este 5 Este 0 -- -- 84
2020-04-03 23:00:00 5.7 2 Oeste 6 Sudeste 0 -- -- 74
2020-04-03 22:00:00 6.9 4 Sudeste 16 Sudeste 0 -- -- 64
2020-04-03 21:00:00 9.2 11 Sur 23 Sudoeste 0 -- -- 54
2020-04-03 20:00:00 10.4 19 Sur 23 Sur 0 -- -- 52
2020-04-03 19:00:00 11.8 17 Sur 22 Sudoeste 0 -- -- 50
2020-04-03 18:00:00 12.6 17 Sur 25 Sur 0 -- -- 52
2020-04-03 17:00:00 12.7 18 Sur 26 Sur 0 -- -- 55
2020-04-03 16:00:00 12.4 17 Sur 25 Sur 0 -- -- 53
2020-04-03 15:00:00 11.3 19 Sur 26 Sur 0 -- -- 61
2020-04-03 14:00:00 10.1 16 Sur 21 Sur 0 -- -- 66
2020-04-03 13:00:00 8.5 6 Sur 12 Sur 0 -- -- 73
2020-04-03 12:00:00 6.7 4 Este 10 Este 0 -- -- 78
2020-04-03 11:00:00 2.8 0 Calma 7 Noroeste 0 -- -- 92
2020-04-03 10:00:00 1.1 0 Calma 8 Norte 0 -- -- 100
2020-04-03 09:00:00 -0.7 4 Norte 7 Norte 0 -- -- 100
2020-04-03 08:00:00 -2.1 3 Norte 8 Norte 0 -- -- 100
2020-04-03 07:00:00 -2.6 3 Nordeste 5 Este 0 -- -- 100
2020-04-03 06:00:00 -1.9 0 Calma 4 Norte 0 -- -- 100
2020-04-03 05:00:00 -1.6 0 Calma 6 Norte 0 -- -- 100
2020-04-03 04:00:00 -1.4 5 Norte 7 Norte -- -- -- 100
2020-04-03 03:00:00 -0.6 5 Norte 8 Noroeste 0 -- -- 99
2020-04-03 02:00:00 -0.9 3 Nordeste 9 Norte 0 -- -- 96
2020-04-03 01:00:00 0.5 5 Norte 11 Norte 0 -- -- 90
2020-04-03 00:00:00 1.8 5 Norte 20 Nordeste 0 -- -- 85
2020-04-02 23:00:00 3.1 14 Nordeste 32 Nordeste 0 -- -- 82
2020-04-02 22:00:00 3.8 17 Nordeste 35 Nordeste 0 -- -- 80
2020-04-02 21:00:00 5 21 Nordeste 33 Nordeste 0 -- -- 72
2020-04-02 20:00:00 6.2 16 Nordeste 29 Noroeste 0 -- -- 70
2020-04-02 19:00:00 7.1 14 Norte 23 Noroeste 0 -- -- 67
2020-04-02 18:00:00 8 16 Norte 30 Norte 0 -- -- 64
2020-04-02 17:00:00 10.1 9 Norte 25 Norte 0 -- -- 63
2020-04-02 16:00:00 7.2 8 Norte 23 Noroeste 0 -- -- 72
2020-04-02 15:00:00 8.3 12 Norte 30 Norte 0 -- -- 69
2020-04-02 14:00:00 10.3 15 Nordeste 32 Norte 0 -- -- 68
2020-04-02 13:00:00 7.9 15 Noroeste 28 Norte 0 -- -- 75
2020-04-02 12:00:00 6 14 Norte -- -- -- -- -- 89
2020-04-02 11:00:00 5.9 17 Norte 31 Norte 0.4 -- -- 87
2020-04-02 10:00:00 5.3 14 Norte 40 Norte 0.8 -- -- 92
2020-04-02 09:00:00 6.5 10 Noroeste 28 Norte 0 -- -- 78
2020-04-02 08:00:00 6 12 Norte 28 Norte 0 -- -- 81
2020-04-02 07:00:00 5.9 7 Norte 27 Norte 0 -- -- 88
2020-04-02 06:00:00 6 12 Norte 29 Noroeste 0 -- -- 86
2020-04-02 05:00:00 5.9 12 Norte 30 Noroeste 0 -- -- 86
2020-04-02 04:00:00 5.8 12 Norte 24 Norte 0 -- -- 88
2020-04-02 03:00:00 5.8 8 Norte 17 Noroeste 0 -- -- 88
2020-04-02 02:00:00 5.6 5 Noroeste 15 Noroeste 0 -- -- 90
2020-04-02 01:00:00 5.6 5 Noroeste 11 Norte 0 -- -- 89
2020-04-02 00:00:00 5.6 5 Norte 19 Norte 0 -- -- 87
2020-04-01 23:00:00 5.8 6 Norte 23 Nordeste 0 -- -- 90
2020-04-01 22:00:00 6 6 Noroeste 18 Noroeste 0 -- -- 91
2020-04-01 21:00:00 6.1 11 Norte 30 Norte 0 -- -- 89
2020-04-01 20:00:00 6.6 16 Norte 28 Norte 0 -- -- 86
2020-04-01 19:00:00 7.7 19 Norte 31 Norte 0 -- -- 75
2020-04-01 18:00:00 9.8 12 Nordeste 26 Norte 0 -- -- 67
2020-04-01 17:00:00 12 6 Noroeste 14 Noroeste 0 -- -- 53
2020-04-01 16:00:00 10.4 3 Nordeste 6 Este 0 -- -- 66
2020-04-01 15:00:00 8.7 4 Sur 6 Sudoeste 0 -- -- 74
2020-04-01 14:00:00 9 3 Sudeste 9 Sudoeste 0 -- -- 73
2020-04-01 13:00:00 8.3 4 Sudoeste 11 Sur 0 -- -- 82
2020-04-01 12:00:00 5 10 Sur 16 Sur 0 -- -- 99
2020-04-01 11:00:00 5.3 6 Sudoeste 12 Sudoeste 0 -- -- 95
2020-04-01 10:00:00 4.7 8 Sur 12 Sur 0 -- -- 100
2020-04-01 09:00:00 4 3 Nordeste 10 Sudeste 0 -- -- 100
2020-04-01 08:00:00 3.3 0 Calma 3 Nordeste 0.2 -- -- 100
2020-04-01 07:00:00 3.2 0 Calma 8 Sudoeste 0 -- -- 100
2020-04-01 06:00:00 3.4 7 Sur 22 Sur 0.4 -- -- 100
2020-04-01 05:00:00 3.5 14 Sur 23 Sur 0.6 -- -- 96
2020-04-01 04:00:00 4.2 9 Sur 19 Sur 1 -- -- 91
2020-04-01 03:00:00 4.5 8 Este 19 Este 0.4 -- -- 92
2020-04-01 02:00:00 4.5 7 Este 29 Este 0.2 -- -- 93
2020-04-01 01:00:00 5 15 Este 31 Este 0 -- -- 92
2020-04-01 00:00:00 4.8 15 Este 30 Este 0 -- -- 92
2020-03-31 23:00:00 4.4 7 Sudeste 27 Sudeste 0.2 -- -- 95
2020-03-31 22:00:00 4.2 3 Este 24 Sudeste 0 -- -- 90
2020-03-31 21:00:00 4.2 3 Sudeste 28 Sudeste 0.4 -- -- 92
2020-03-31 20:00:00 3.8 10 Nordeste 21 Este 0.2 -- -- 93
2020-03-31 19:00:00 4 6 Sur 25 Sudeste 0.8 -- -- 95
2020-03-31 18:00:00 5 16 Este 35 Sudeste 0.4 -- -- 84
2020-03-31 17:00:00 5.7 15 Este 41 Este 0 -- -- 83
2020-03-31 16:00:00 7.1 22 Sudeste 40 Sudeste 0 -- -- 68
2020-03-31 15:00:00 7.8 28 Sudeste 44 Este 0 -- -- 61
2020-03-31 14:00:00 9 21 Este 37 Este 0 -- -- 53
2020-03-31 13:00:00 7.5 19 Este 35 Nordeste 0 -- -- 55
2020-03-31 12:00:00 7 12 Nordeste 29 Este 0 -- -- 52
2020-03-31 11:00:00 1.9 8 Nordeste 19 Nordeste 0 -- -- 53
2020-03-31 10:00:00 0.7 4 Norte 9 Noroeste 0 -- -- 63
2020-03-31 09:00:00 -1.1 5 Noroeste 11 Noroeste 0 -- -- 69
2020-03-31 08:00:00 -1.2 6 Noroeste 26 Nordeste 0 -- -- 71
2020-03-31 07:00:00 -1.5 9 Nordeste 22 Este 0 -- -- 69
2020-03-31 06:00:00 -1.7 10 Nordeste 21 Este 0 -- -- 70
2020-03-31 05:00:00 -2.2 8 Nordeste 25 Nordeste 0 -- -- 75
2020-03-31 04:00:00 -2.2 17 Nordeste 31 Norte 0 -- -- 76
2020-03-31 03:00:00 -2 10 Norte 36 Norte 0 -- -- 84
2020-03-31 02:00:00 -1.6 14 Nordeste 35 Nordeste 0 -- -- 78
2020-03-31 01:00:00 -1.6 10 Norte 50 Norte 0 -- -- 76
2020-03-31 00:00:00 -2.1 15 Norte 39 Norte 0 -- -- 86
2020-03-30 23:00:00 -1.8 15 Norte 42 Norte 0 -- -- 77
2020-03-30 22:00:00 -1.9 14 Norte 41 Norte 0 -- -- 75
2020-03-30 21:00:00 -2.4 19 Norte 33 Norte 0 -- -- 72
2020-03-30 20:00:00 -2.1 21 Norte 47 Norte 0 -- -- 73
2020-03-30 19:00:00 -0.8 16 Norte 39 Norte 0 -- -- 72
2020-03-30 18:00:00 0.5 23 Norte 43 Norte 0.2 -- -- 62
2020-03-30 17:00:00 -0.8 24 Norte 39 Norte 0.2 -- -- 73
2020-03-30 16:00:00 -0.3 15 Norte 35 Norte 0 -- -- 72
2020-03-30 15:00:00 -0.1 11 Norte 35 Norte 0.2 -- -- 73
2020-03-30 14:00:00 0.1 7 Noroeste 36 Norte 0 -- -- 72
2020-03-30 13:00:00 -0.9 17 Norte 43 Norte 0 -- -- 74
2020-03-30 12:00:00 0.7 13 Norte 35 Norte 0.2 -- -- 69
2020-03-30 11:00:00 -0.5 13 Norte 35 Norte 0 -- -- 75
2020-03-30 10:00:00 -0.4 11 Noroeste 27 Norte 0 -- -- 74
2020-03-30 09:00:00 -0.9 9 Norte 26 Noroeste 0 -- -- 76
2020-03-30 08:00:00 -1 9 Norte 31 Norte 0 -- -- 85
2020-03-30 07:00:00 -0.7 14 Norte 33 Norte 0 -- -- 79
2020-03-30 06:00:00 -0.5 11 Norte 32 Norte 0 -- -- 77
2020-03-30 05:00:00 -0.4 15 Norte 36 Norte 0 -- -- 89
2020-03-30 04:00:00 0.8 15 Norte 35 Norte 0 -- -- 83
2020-03-30 03:00:00 0.5 21 Norte 37 Norte 0 -- -- 95
2020-03-30 02:00:00 1.3 17 Norte 34 Noroeste 0 -- -- 94
2020-03-30 01:00:00 2.2 15 Norte 36 Norte 0 -- -- 91
2020-03-30 00:00:00 2.1 20 Norte 36 Noroeste 0 -- -- 100
2020-03-29 23:00:00 3.7 17 Norte 37 Norte 0 -- -- 86
2020-03-29 22:00:00 4.4 18 Norte 35 Norte 0 -- -- 80
2020-03-29 21:00:00 4.3 21 Norte 42 Norte 0 -- -- 82
2020-03-29 20:00:00 4.9 21 Norte 48 Norte 0 -- -- 79
2020-03-29 19:00:00 5.9 24 Norte 42 Norte 0 -- -- 77
2020-03-29 18:00:00 7 21 Norte 35 Norte 0 -- -- 68
2020-03-29 17:00:00 12.1 17 Noroeste 29 Noroeste 0 -- -- 48
2020-03-29 16:00:00 14.2 18 Noroeste 31 Noroeste 0 -- -- 42
2020-03-29 15:00:00 16 10 Norte 21 Noroeste 0 -- -- 34
2020-03-29 14:00:00 15.7 6 Sudoeste 15 Oeste 0 -- -- 42
2020-03-29 13:00:00 13 5 Sudoeste 8 Sur 0 -- -- 42
2020-03-29 12:00:00 11.3 2 Sudoeste 6 Sudoeste 0 -- -- 55
2020-03-29 11:00:00 7.1 3 Sur 5 Sur 0 -- -- 66
2020-03-29 10:00:00 5.5 2 Este 9 Norte 0 -- -- 73
2020-03-29 09:00:00 -0.9 8 Norte 12 Norte 0 -- -- 100
2020-03-29 08:00:00 -1 6 Norte 12 Norte 0 -- -- 100
2020-03-29 07:00:00 -1 6 Norte 11 Norte 0 -- -- 100
2020-03-29 06:00:00 -0.5 6 Norte 11 Norte 0 -- -- 100
2020-03-29 05:00:00 0.3 7 Norte 11 Norte 0 -- -- 98
2020-03-29 03:00:00 1.4 6 Norte 10 Norte 0 -- -- 94
2020-03-29 01:00:00 2.4 4 Norte 9 Norte 0 -- -- 91
2020-03-29 00:00:00 2.4 3 Nordeste 8 Norte 0 -- -- 92
2020-03-28 23:00:00 3.1 2 Nordeste 8 Nordeste 0 -- -- 87
2020-03-28 22:00:00 4.8 0 Calma 5 Noroeste 0 -- -- 78
2020-03-28 21:00:00 5.4 2 Este 5 Nordeste 0 -- -- 75
2020-03-28 20:00:00 7.3 6 Norte 11 Noroeste 0 -- -- 67
2020-03-28 19:00:00 10.7 4 Nordeste 17 Oeste 0 -- -- 51
2020-03-28 18:00:00 12.1 12 Sur 26 Sur 0 -- -- 42
2020-03-28 17:00:00 13 18 Sur 28 Sur 0 -- -- 39
2020-03-28 16:00:00 14.3 14 Sur 22 Sur 0 -- -- 37
2020-03-28 15:00:00 15.6 7 Sudoeste 12 Sudoeste 0 -- -- 34
2020-03-28 14:00:00 15 5 Sudoeste 9 Sudoeste 0 -- -- 35
2020-03-28 13:00:00 13.2 5 Sur 9 Sur 0 -- -- 33
2020-03-28 12:00:00 13 3 Sudoeste 6 Sur 0 -- -- 34
2020-03-28 11:00:00 8.9 3 Sur 9 Sudoeste 0 -- -- 46
2020-03-28 10:00:00 6.6 3 Sudoeste 10 Norte 0 -- -- 51
2020-03-28 09:00:00 3 6 Norte 11 Norte 0 -- -- 64
2020-03-28 08:00:00 -1.6 8 Norte 12 Norte 0 -- -- 85
2020-03-28 07:00:00 -2.1 0 Calma 10 Norte 0 -- -- 84
2020-03-28 06:00:00 -2.4 5 Norte 10 Norte 0 -- -- 87
2020-03-28 05:00:00 -2.1 5 Norte 10 Norte 0 -- -- 83
2020-03-28 04:00:00 -1.3 4 Norte 10 Noroeste 0 -- -- 80
2020-03-28 03:00:00 -1.1 0 Calma 6 Noroeste 0 -- -- 76
2020-03-28 02:00:00 -0.4 0 Calma 4 Norte 0 -- -- 75
2020-03-28 01:00:00 0.3 0 Calma 4 Norte 0 -- -- 68
2020-03-28 00:00:00 1 0 Calma 5 Este 0 -- -- 65
2020-03-27 23:00:00 1.8 0 Calma 5 Este 0 -- -- 61
2020-03-27 22:00:00 3.3 0 Calma 5 Nordeste 0 -- -- 51
2020-03-27 21:00:00 3.6 4 Este 15 Sudeste 0 -- -- 49
2020-03-27 20:00:00 6.5 9 Sudeste 26 Sur 0 -- -- 38
2020-03-27 19:00:00 7.9 21 Sur 30 Sur 0 -- -- 36
2020-03-27 18:00:00 8.9 22 Sur 42 Sur 0 -- -- 32
2020-03-27 17:00:00 9 26 Sur 43 Sur 0 -- -- 35
2020-03-27 16:00:00 9.5 28 Sur 42 Sur 0 -- -- 38
2020-03-27 15:00:00 9.6 20 Sur 45 Sur 0 -- -- 36
2020-03-27 14:00:00 9.4 23 Sur 50 Sur 0 -- -- 35
2020-03-27 13:00:00 7.8 30 Sur 44 Sur 0 -- -- 37
2020-03-27 12:00:00 7.1 22 Sur 30 Sur 0 -- -- 40
2020-03-27 11:00:00 5.8 6 Sur 11 Sur 0 -- -- 48
2020-03-27 10:00:00 4.7 4 Sudoeste 8 Oeste 0 -- -- 51
2020-03-27 09:00:00 2.4 4 Este 9 Este 0 -- -- 62
2020-03-27 08:00:00 -3.4 0 Calma 12 Este 0 -- -- 82
2020-03-27 07:00:00 -3 6 Este 12 Este 0 -- -- 78
2020-03-27 06:00:00 -2.6 0 Calma 10 Noroeste 0 -- -- 76
2020-03-27 05:00:00 -2.3 6 Norte 13 Norte 0 -- -- 79
2020-03-27 04:00:00 -1.1 10 Norte 14 Nordeste 0 -- -- 76
2020-03-27 03:00:00 -0.5 6 Nordeste 14 Norte 0 -- -- 74
2020-03-27 02:00:00 0.9 12 Norte 24 Norte 0 -- -- 69
2020-03-27 01:00:00 1.2 9 Norte 26 Norte 0 -- -- 70
2020-03-27 00:00:00 1.7 13 Norte 40 Norte 0 -- -- 69
2020-03-26 23:00:00 1.9 13 Norte 32 Norte 0 -- -- 67
2020-03-26 22:00:00 1.6 18 Norte 33 Nordeste 0 -- -- 65
2020-03-26 21:00:00 2.2 16 Norte 32 Norte 0 -- -- 70
2020-03-26 20:00:00 2.9 18 Nordeste 36 Norte 0 -- -- 67
2020-03-26 19:00:00 4.4 19 Nordeste 40 Nordeste 0 -- -- 63
2020-03-26 18:00:00 6.4 22 Nordeste 38 Nordeste 0 -- -- 57
2020-03-26 17:00:00 7.8 25 Nordeste 44 Nordeste 0 -- -- 54
2020-03-26 16:00:00 10.3 17 Nordeste 40 Nordeste 0 -- -- 46
2020-03-26 15:00:00 10.2 22 Nordeste 41 Nordeste 0 -- -- 41
2020-03-26 14:00:00 9.7 21 Nordeste 36 Nordeste 0 -- -- 41
2020-03-26 13:00:00 8.6 27 Norte 41 Norte 0 -- -- 35
2020-03-26 12:00:00 10.5 19 Nordeste 33 Nordeste 0 -- -- 21
2020-03-26 11:00:00 10.3 23 Nordeste 38 Nordeste 0 -- -- 15
2020-03-26 10:00:00 10.6 19 Nordeste 40 Norte 0 -- -- 14
2020-03-26 09:00:00 9.3 27 Norte 43 Norte 0 -- -- 10
2020-03-26 08:00:00 3.9 14 Norte 21 Norte 0 -- -- 14
2020-03-26 07:00:00 2 2 Este 5 Nordeste 0 -- -- 22
2020-03-26 06:00:00 0.7 4 Este 10 Este 0 -- -- 26
2020-03-26 05:00:00 2.2 3 Sudeste 15 Oeste 0 -- -- 29
2020-03-26 04:00:00 1.7 10 Norte 18 Noroeste 0 -- -- 35
2020-03-26 03:00:00 4.2 13 Noroeste 29 Norte 0 -- -- 35
2020-03-26 02:00:00 5.6 19 Norte 34 Noroeste 0 -- -- 22
2020-03-26 01:00:00 3.7 10 Noroeste 30 Norte 0 -- -- 39
2020-03-26 00:00:00 5.8 19 Nordeste 40 Norte 0 -- -- 36
2020-03-25 23:00:00 6.2 18 Norte 33 Norte 0 -- -- 35
2020-03-25 22:00:00 6.4 12 Norte 23 Norte 0 -- -- 37
2020-03-25 21:00:00 7.1 12 Norte 25 Norte 0 -- -- 39
2020-03-25 20:00:00 8 14 Noroeste 24 Noroeste 0 -- -- 43
2020-03-25 19:00:00 9.8 11 Norte 27 Norte 0 -- -- 39
2020-03-25 18:00:00 11.3 22 Nordeste 36 Nordeste 0 -- -- 32
2020-03-25 17:00:00 12.8 22 Norte 35 Norte 0 -- -- 33
2020-03-25 16:00:00 14 20 Norte 44 Nordeste 0 -- -- 38
2020-03-25 15:00:00 14.6 26 Nordeste 45 Nordeste 0 -- -- 36
2020-03-25 14:00:00 14.9 22 Nordeste 40 Nordeste 0 -- -- 38
2020-03-25 13:00:00 14.8 15 Nordeste 33 Nordeste 0 -- -- 38
2020-03-25 12:00:00 14.5 12 Norte 29 Norte 0 -- -- 40
2020-03-25 11:00:00 13.2 17 Norte 26 Norte 0 -- -- 55
2020-03-25 10:00:00 10.4 3 Sur 6 Sur 0 -- -- 74
2020-03-25 09:00:00 6.4 4 Nordeste 10 Nordeste 0 -- -- 86
2020-03-25 08:00:00 1.3 4 Nordeste 9 Norte 0 -- -- 100
2020-03-25 07:00:00 1.5 5 Norte 11 Norte 0 -- -- 100
2020-03-25 06:00:00 2.2 0 Calma 8 Norte 0 -- -- 100
2020-03-25 05:00:00 2.5 0 Calma 6 Norte 0 -- -- 100
2020-03-25 04:00:00 2.7 0 Calma 7 Norte 0 -- -- 100
2020-03-25 03:00:00 3.6 5 Norte 7 Norte 0 -- -- 100
2020-03-25 02:00:00 4.2 0 Calma 5 Noroeste 0 -- -- 98
2020-03-25 01:00:00 4.8 3 Nordeste 5 Este 0 -- -- 97
2020-03-25 00:00:00 6.1 0 Calma 5 Nordeste 0 -- -- 89
2020-03-24 23:00:00 7.1 4 Este 15 Nordeste 0 -- -- 85
2020-03-24 22:00:00 9 15 Nordeste 32 Nordeste 0 -- -- 81
2020-03-24 21:00:00 10.2 15 Este 32 Nordeste 0 -- -- 74
2020-03-24 20:00:00 11.6 5 Sur 14 Sudoeste 0 -- -- 58
2020-03-24 19:00:00 12.5 5 Sur 12 Sur 0 -- -- 56
2020-03-24 18:00:00 14.6 7 Norte 20 Sudoeste 0 -- -- 50
2020-03-24 17:00:00 14.8 7 Sudoeste 17 Sudoeste 0 -- -- 45
2020-03-24 16:00:00 15.5 9 Sur 19 Sudoeste 0 -- -- 42
2020-03-24 15:00:00 14.6 6 Sudoeste 9 Sudoeste 0 -- -- 50
2020-03-24 14:00:00 13.1 4 Sur 13 Sur 0 -- -- 55
2020-03-24 13:00:00 11.4 8 Sudoeste 19 Sudoeste 0 -- -- 61
2020-03-24 12:00:00 10.4 12 Sudoeste 26 Sur 0 -- -- 63
2020-03-24 11:00:00 9 18 Sur 29 Sur 0 -- -- 72
2020-03-24 10:00:00 9 6 Sur 13 Sudoeste 0 -- -- 71
2020-03-24 09:00:00 8.1 3 Sur 10 Sur 0 -- -- 77
2020-03-24 08:00:00 6.5 5 Este 16 Sudeste 0 -- -- 82
2020-03-24 07:00:00 7 7 Este 15 Sudeste 0 -- -- 79
2020-03-24 06:00:00 7.1 5 Este 9 Nordeste 0 -- -- 80
2020-03-24 05:00:00 7.3 4 Sudeste 12 Sudeste 0 -- -- 80
2020-03-24 04:00:00 7.5 4 Sudeste 16 Sudeste 0 -- -- 78
2020-03-24 03:00:00 7.8 10 Sudeste 19 Este 0 -- -- 77
2020-03-24 02:00:00 8 12 Sudeste 24 Sudeste 0 -- -- 77
2020-03-24 01:00:00 8.4 12 Sudeste 22 Este 0 -- -- 72
2020-03-24 00:00:00 8.3 10 Sudeste 22 Este 0 -- -- 75
2020-03-23 23:00:00 8.8 16 Este 26 Este 0 -- -- 71
2020-03-23 22:00:00 8.1 9 Este 17 Este 0 -- -- 71
2020-03-23 21:00:00 7.9 0 Calma 9 Sudeste 0 -- -- 66
2020-03-23 20:00:00 9.6 7 Sudeste 15 Sudoeste 0 -- -- 63
2020-03-23 19:00:00 11 3 Oeste 16 Sur 0 -- -- 57
2020-03-23 18:00:00 11.2 9 Sur 29 Sur 0 -- -- 56
2020-03-23 17:00:00 11.9 21 Sudoeste 32 Sur 0 -- -- 53
2020-03-23 16:00:00 11.5 18 Sur 24 Sur 0 -- -- 55
2020-03-23 15:00:00 13 22 Sur 31 Sur 0 -- -- 53
2020-03-23 14:00:00 11.4 18 Sur 24 Sur 0 -- -- 55
2020-03-23 13:00:00 12 5 Sudoeste 8 Sur 0 -- -- 54
2020-03-23 12:00:00 10.7 2 Nordeste 5 Este 0 -- -- 58
2020-03-23 11:00:00 10.1 2 Sur 7 Sur 0 -- -- 60
2020-03-23 10:00:00 8.2 4 Norte 8 Norte 0 -- -- 67
2020-03-23 09:00:00 4 6 Norte 13 Norte 0 -- -- 87
2020-03-23 08:00:00 -0.2 3 Nordeste 10 Norte 0 -- -- 100
2020-03-23 07:00:00 -0.6 2 Nordeste 12 Norte 0 -- -- 100
2020-03-23 06:00:00 0.1 3 Nordeste 10 Norte 0 -- -- 100
2020-03-23 05:00:00 0.5 4 Norte 10 Norte 0 -- -- 100
2020-03-23 04:00:00 1.1 6 Norte 13 Norte 0 -- -- 100
2020-03-23 03:00:00 1.6 8 Norte 12 Norte 0 -- -- 100
2020-03-23 02:00:00 1.8 3 Nordeste 9 Norte 0 -- -- 98
2020-03-23 01:00:00 2.3 5 Norte 10 Norte 0 -- -- 96
2020-03-23 00:00:00 3.6 3 Nordeste 13 Norte 0 -- -- 95
2020-03-22 23:00:00 4.3 7 Norte 15 Noroeste 0 -- -- 94
2020-03-22 22:00:00 6.1 10 Norte 19 Noroeste 0 -- -- 84
2020-03-22 21:00:00 6.9 12 Noroeste 23 Noroeste 0 -- -- 81
2020-03-22 20:00:00 7.4 11 Noroeste 29 Norte 0 -- -- 78
2020-03-22 19:00:00 8.9 14 Noroeste 35 Norte 0 -- -- 70
2020-03-22 18:00:00 10.6 17 Norte 37 Norte 0 -- -- 64
2020-03-22 17:00:00 12 19 Norte 35 Norte 0 -- -- 60
2020-03-22 16:00:00 13.3 16 Norte 33 Noroeste 0 -- -- 56
2020-03-22 15:00:00 13.7 22 Norte 31 Norte 0 -- -- 51
2020-03-22 14:00:00 15.4 15 Norte 25 Noroeste 0 -- -- 48
2020-03-22 13:00:00 15.1 9 Nordeste 21 Nordeste 0 -- -- 42
2020-03-22 12:00:00 14.4 8 Nordeste 22 Noroeste 0 -- -- 48
2020-03-22 11:00:00 13.7 9 Norte 18 Norte 0 -- -- 53
2020-03-22 10:00:00 12 5 Norte 18 Norte 0 -- -- 64
2020-03-22 09:00:00 7.1 6 Noroeste 15 Noroeste 0 -- -- 90
2020-03-22 08:00:00 3.1 9 Norte 16 Norte 0 -- -- 100
2020-03-22 07:00:00 2.6 7 Norte 13 Noroeste 0 -- -- 100
2020-03-22 06:00:00 3.5 4 Norte 10 Norte 0 -- -- 100
2020-03-22 05:00:00 3.2 3 Este 8 Norte 0 -- -- 100
2020-03-22 04:00:00 4.7 3 Norte 9 Norte 0 -- -- 100
2020-03-22 03:00:00 5.4 3 Noroeste 7 Norte 0 -- -- 99
2020-03-22 02:00:00 5.1 5 Norte 11 Norte 0 -- -- 96
2020-03-22 01:00:00 6.1 5 Norte 11 Nordeste 0 -- -- 95
2020-03-22 00:00:00 6.6 5 Norte 12 Norte 0 -- -- 89
2020-03-21 23:00:00 7.5 3 Nordeste 6 Noroeste 0 -- -- 87
2020-03-21 22:00:00 8 2 Norte 10 Norte 0 -- -- 85
2020-03-21 21:00:00 8.6 4 Norte 10 Sur 0 -- -- 79
2020-03-21 20:00:00 9.5 9 Sudoeste 17 Sur 0 -- -- 81
2020-03-21 19:00:00 9.8 3 Noroeste 13 Oeste 0 -- -- 63
2020-03-21 18:00:00 11.4 7 Nordeste 17 Norte 0 -- -- 57
2020-03-21 17:00:00 13.2 11 Sudoeste 23 Sudoeste 0 -- -- 61
2020-03-21 16:00:00 15 4 Sur 10 Sudeste 0 -- -- 57
2020-03-21 15:00:00 13 6 Sur 19 Sur 0 -- -- 64
2020-03-21 14:00:00 9.9 11 Sur 20 Sur 0 -- -- 80
2020-03-21 13:00:00 10 13 Sur 17 Sur 0 -- -- 77
2020-03-21 12:00:00 10.5 4 Sudoeste 20 Nordeste 0 -- -- 72
2020-03-21 11:00:00 9.2 15 Nordeste 26 Nordeste 0 -- -- 79
2020-03-21 10:00:00 8.3 6 Nordeste 13 Sudeste 0 -- -- 86
2020-03-21 09:00:00 6.8 8 Sur 18 Este 0 -- -- 94
2020-03-21 08:00:00 6.7 10 Este 21 Sur 0 -- -- 91
2020-03-21 07:00:00 6.9 8 Sur 23 Sudoeste 0 -- -- 92
2020-03-21 06:00:00 7.3 9 Sur 26 Este 0 -- -- 88
2020-03-21 05:00:00 8.1 13 Sudeste 23 Sudeste 0 -- -- 90
2020-03-21 04:00:00 7.7 6 Sur 12 Sur 0 -- -- 100
2020-03-21 03:00:00 7.8 11 Sur 21 Sur 0 -- -- 100
2020-03-21 02:00:00 8.1 12 Sur 20 Sur 0 -- -- 98
2020-03-21 01:00:00 7.9 8 Sudoeste 23 Sur 0 -- -- 99
2020-03-21 00:00:00 8.3 9 Sur 15 Sur 0 -- -- 96
2020-03-20 23:00:00 7.2 0 Calma 6 Nordeste 0 -- -- 100
2020-03-20 22:00:00 7.3 0 Calma 12 Sur 2.4 -- -- 100
2020-03-20 21:00:00 7.7 4 Sur 8 Sudeste 0 -- -- 100
2020-03-20 20:00:00 7.7 3 Sudeste 8 Este 0.2 -- -- 100
2020-03-20 19:00:00 8 3 Sur 11 Sur 0.2 -- -- 97
2020-03-20 18:00:00 8.7 5 Sur 22 Sur 0.6 -- -- 92
2020-03-20 17:00:00 9.7 8 Sur 15 Sur 0 -- -- 77
2020-03-20 16:00:00 9.5 12 Sudeste 24 Este 0 -- -- 77
2020-03-20 15:00:00 9.4 9 Sur 23 Sur 0 -- -- 79
2020-03-20 14:00:00 9.3 14 Sur 22 Sur 0 -- -- 81
2020-03-20 13:00:00 8.5 13 Sudoeste 19 Sur 0 -- -- 86
2020-03-20 12:00:00 8.2 13 Sur 26 Sur 0 -- -- 88
2020-03-20 11:00:00 7.6 17 Sur 23 Sur 0 -- -- 92
2020-03-20 10:00:00 7.3 3 Sudeste 17 Sur 0 -- -- 92
2020-03-20 09:00:00 7.3 2 Nordeste 5 Norte 0 -- -- 89
2020-03-20 08:00:00 6.5 2 Norte 5 Este 0 -- -- 90
2020-03-20 07:00:00 6.6 3 Nordeste 9 Este 0 -- -- 83
2020-03-20 06:00:00 6.5 5 Sudeste 9 Sudeste 0 -- -- 82
2020-03-20 05:00:00 5.5 2 Este 8 Este 0 -- -- 85
2020-03-20 04:00:00 5.3 0 Calma 4 Sudeste 0 -- -- 81
2020-03-20 03:00:00 5.9 0 Calma 6 Este 0 -- -- 75
2020-03-20 02:00:00 5.8 3 Este 8 Este 0 -- -- 72
2020-03-20 01:00:00 5.9 0 Calma 4 Nordeste 0 -- -- 73
2020-03-20 00:00:00 5.9 0 Calma 6 Este 0 -- -- 74
2020-03-19 23:00:00 6.2 0 Calma 4 Este 0 -- -- 70
2020-03-19 22:00:00 7 0 Calma 5 Este 0 -- -- 68
2020-03-19 21:00:00 8.2 2 Sudeste 7 Este 0 -- -- 61
2020-03-19 20:00:00 9.6 2 Sudeste 12 Sur 0 -- -- 54
2020-03-19 19:00:00 11.9 5 Sur 17 Sur 0 -- -- 55
2020-03-19 18:00:00 13.3 14 Sur 27 Sur 0 -- -- 50
2020-03-19 17:00:00 14 17 Sur 28 Sur 0 -- -- 60
2020-03-19 16:00:00 13.3 6 Oeste 23 Norte 0 -- -- 62
2020-03-19 15:00:00 16.7 7 Nordeste 15 Sudoeste 0 -- -- 50
2020-03-19 14:00:00 17 9 Sudoeste 19 Sur 0 -- -- 54
2020-03-19 13:00:00 16.5 8 Sudoeste 13 Sur 0 -- -- 54
2020-03-19 12:00:00 15.9 3 Sudeste 5 Sur 0 -- -- 57
2020-03-19 11:00:00 11.5 2 Sur 5 Sur 0 -- -- 70
2020-03-19 10:00:00 9.1 0 Calma 4 Sudeste 0 -- -- 81
2020-03-19 09:00:00 5.3 2 Este 4 Nordeste 0 -- -- 97
2020-03-19 08:00:00 3.5 0 Calma 6 Noroeste 0 -- -- 100
2020-03-19 07:00:00 3.6 0 Calma 4 Nordeste 0 -- -- 100
2020-03-19 06:00:00 3.9 0 Calma 6 Este 0 -- -- 99
2020-03-19 05:00:00 4.4 3 Norte 7 Norte 0 -- -- 98
2020-03-19 04:00:00 4.6 3 Nordeste 11 Norte 0 -- -- 96
2020-03-19 03:00:00 5.4 0 Calma 3 Este 0 -- -- 92
2020-03-19 02:00:00 6.1 0 Calma 3 Noroeste 0 -- -- 90
2020-03-19 01:00:00 6.3 0 Calma 2 Sudoeste 0 -- -- 89
2020-03-19 00:00:00 7.4 0 Calma 3 Este 0 -- -- 85
2020-03-18 23:00:00 8 0 Calma 6 Noroeste 0 -- -- 82
2020-03-18 22:00:00 8.8 2 Sudeste 5 Sudeste 0 -- -- 77
2020-03-18 21:00:00 9.9 0 Calma 5 Este 0 -- -- 75
2020-03-18 20:00:00 11.7 2 Este 21 Sudeste 0 -- -- 67
2020-03-18 19:00:00 13 15 Sur 23 Sur 0 -- -- 61
2020-03-18 18:00:00 15.1 16 Sur 26 Sur 0 -- -- 54
2020-03-18 17:00:00 15.9 17 Sur 23 Sur 0 -- -- 52
2020-03-18 16:00:00 17.1 14 Sur 23 Sur 0 -- -- 49
2020-03-18 15:00:00 17.7 12 Sur 21 Sur 0 -- -- 50
2020-03-18 14:00:00 16.3 15 Sur 22 Sur 0 -- -- 54
2020-03-18 13:00:00 17.3 3 Sur 7 Sudoeste 0 -- -- 46
2020-03-18 12:00:00 15.4 2 Sudeste 6 Oeste 0 -- -- 56
2020-03-18 11:00:00 12.3 3 Sudoeste 10 Oeste 0 -- -- 65
2020-03-18 10:00:00 11.7 3 Norte 7 Norte 0 -- -- 68
2020-03-18 09:00:00 8.4 4 Noroeste 10 Noroeste 0 -- -- 84
2020-03-18 08:00:00 6 4 Noroeste 10 Norte 0 -- -- 96
2020-03-18 07:00:00 6.9 0 Calma 4 Oeste 0 -- -- 99
2020-03-18 06:00:00 6.8 0 Calma 3 Este 0 -- -- 100
2020-03-18 05:00:00 7.1 0 Calma 2 Nordeste 0 -- -- 97
2020-03-18 04:00:00 7.4 0 Calma 3 Sudoeste 0 -- -- 96
2020-03-18 03:00:00 7.4 0 Calma 4 Este 0 -- -- 96
2020-03-18 02:00:00 7.6 3 Nordeste 4 Este 0 -- -- 94
2020-03-18 01:00:00 7 2 Este 3 Nordeste 0 -- -- 93
2020-03-18 00:00:00 6.5 0 Calma 4 Noroeste 0 -- -- 94
2020-03-17 23:00:00 6.2 0 Calma 4 Este 0 -- -- 94
2020-03-17 22:00:00 5.8 0 Calma 6 Este 0 -- -- 92
2020-03-17 21:00:00 6.5 2 Este 10 Nordeste 0 -- -- 86
2020-03-17 20:00:00 8.3 3 Este 10 Sudeste 0 -- -- 78
2020-03-17 19:00:00 10.3 9 Sudeste 21 Sur 0 -- -- 72
2020-03-17 18:00:00 10.2 15 Sur 25 Sur 0 -- -- 75
2020-03-17 17:00:00 11.7 12 Sur 23 Sudeste 0 -- -- 68
2020-03-17 16:00:00 12.9 15 Este 29 Este 0 -- -- 63
2020-03-17 15:00:00 12.9 17 Nordeste 37 Este 0 -- -- 63
2020-03-17 14:00:00 13.2 13 Este 26 Este 0 -- -- 59
2020-03-17 13:00:00 14.6 16 Este 25 Este 0 -- -- 54
2020-03-17 12:00:00 12.8 4 Norte 12 Norte 0 -- -- 59
2020-03-17 11:00:00 11.2 4 Noroeste 17 Noroeste 0 -- -- 61
2020-03-17 10:00:00 8.6 8 Norte 17 Noroeste 0 -- -- 70
2020-03-17 09:00:00 4.7 9 Norte 19 Norte 0 -- -- 82
2020-03-17 08:00:00 2.3 6 Norte 30 Noroeste 0 -- -- 88
2020-03-17 07:00:00 1.2 4 Nordeste 14 Noroeste 0 -- -- 90
2020-03-17 06:00:00 1.9 4 Norte 23 Noroeste 0 -- -- 86
2020-03-17 05:00:00 2.2 6 Noroeste 21 Noroeste 0 -- -- 84
2020-03-17 04:00:00 2.6 5 Noroeste 26 Oeste 0 -- -- 84
2020-03-17 03:00:00 2.4 14 Noroeste 37 Oeste 0 -- -- 84
2020-03-17 02:00:00 2.3 15 Noroeste 38 Noroeste 0 -- -- 82
2020-03-17 01:00:00 2 19 Noroeste 54 Norte 0 -- -- 80
2020-03-17 00:00:00 1.8 18 Noroeste 62 Noroeste 0 -- -- 78
2020-03-16 23:00:00 1.7 27 Noroeste 64 Norte 0 -- -- 79
2020-03-16 22:00:00 1.9 25 Norte 61 Noroeste 0 -- -- 79
2020-03-16 21:00:00 1.9 22 Noroeste 69 Noroeste 0 -- -- 83
2020-03-16 20:00:00 1.9 32 Norte 57 Norte 0 -- -- 79
2020-03-16 19:00:00 1.9 24 Norte 62 Norte 0 -- -- 72
2020-03-16 18:00:00 1.6 30 Norte 54 Norte 0.2 -- -- 81
2020-03-16 17:00:00 2.5 18 Noroeste 55 Noroeste 0.2 -- -- 88
2020-03-16 16:00:00 3.3 24 Noroeste 51 Norte 0.2 -- -- 75
2020-03-16 15:00:00 3.8 32 Norte 67 Noroeste 0.6 -- -- 74
2020-03-16 14:00:00 4.4 27 Norte 69 Norte 2.8 -- -- 72
2020-03-16 13:00:00 2.7 29 Norte 59 Noroeste 3.4 -- -- 78
2020-03-16 12:00:00 2.5 32 Norte 61 Norte 2.4 -- -- 81
2020-03-16 11:00:00 1.9 34 Norte 72 Noroeste 0.4 -- -- 82
2020-03-16 10:00:00 0.6 25 Norte 56 Norte 0 -- -- 91
2020-03-16 09:00:00 -0.1 17 Norte 50 Norte 0 -- -- 100
2020-03-16 08:00:00 0 23 Norte 48 Noroeste 0 -- -- 92
2020-03-16 07:00:00 0.2 24 Norte 55 Norte 0 -- -- 87
2020-03-16 06:00:00 -0.5 20 Noroeste 43 Norte 0 -- -- 100
2020-03-16 05:00:00 0.2 21 Norte 35 Norte 0 -- -- 88
2020-03-16 04:00:00 -0.2 21 Norte 44 Norte 0 -- -- 97
2020-03-16 03:00:00 -0.4 18 Norte 33 Norte -- -- -- 100
2020-03-16 02:00:00 -0.4 10 Noroeste 29 Norte 0 -- -- 99
2020-03-16 01:00:00 -0.6 8 Noroeste 35 Norte 0 -- -- 100
2020-03-16 00:00:00 -0.7 17 Norte 31 Norte 0 -- -- 100
2020-03-15 23:00:00 -0.6 8 Noroeste 23 Noroeste 0 -- -- 100
2020-03-15 22:00:00 -0.2 9 Noroeste 19 Noroeste 0 -- -- 100
2020-03-15 21:00:00 0 9 Noroeste 27 Noroeste 0 -- -- 100
2020-03-15 20:00:00 1.6 14 Noroeste 40 Noroeste 0 -- -- 79
2020-03-15 19:00:00 3 10 Noroeste 51 Noroeste 0 -- -- 73
2020-03-15 18:00:00 6 21 Norte 37 Norte 0 -- -- 66
2020-03-15 17:00:00 14.2 3 Sudeste 21 Sudoeste 0 -- -- 39
2020-03-15 16:00:00 11.1 10 Sudoeste 45 Oeste 0 -- -- 43
2020-03-15 15:00:00 13 17 Sudoeste 42 Sudoeste 0 -- -- 38
2020-03-15 14:00:00 13.8 17 Sur 33 Sur 0 -- -- 42
2020-03-15 13:00:00 13.7 16 Sur 27 Sur 0 -- -- 39
2020-03-15 12:00:00 12.4 17 Sur 25 Sur 0 -- -- 45
2020-03-15 11:00:00 11.1 4 Sudoeste 10 Sur 0 -- -- 53
2020-03-15 10:00:00 7 2 Sur 5 Sudeste 0 -- -- 68
2020-03-15 09:00:00 5.2 3 Norte 9 Norte 0 -- -- 75
2020-03-15 08:00:00 -0.6 2 Nordeste 7 Norte 0 -- -- 98
2020-03-15 07:00:00 -0.2 5 Noroeste 8 Noroeste 0 -- -- 95
2020-03-15 06:00:00 0.1 0 Calma 7 Norte 0 -- -- 91
2020-03-15 05:00:00 0.9 0 Calma 4 Este 0 -- -- 87
2020-03-15 04:00:00 1.4 0 Calma 2 Noroeste 0 -- -- 83
2020-03-15 03:00:00 2 0 Calma 4 Este 0 -- -- 81
2020-03-15 02:00:00 2.7 0 Calma 4 Este 0 -- -- 77
2020-03-15 01:00:00 3.6 0 Calma 4 Este 0 -- -- 76
2020-03-15 00:00:00 4.2 3 Este 7 Este 0 -- -- 71
2020-03-14 23:00:00 5.5 0 Calma 7 Este 0 -- -- 66
2020-03-14 22:00:00 7 0 Calma 5 Oeste 0 -- -- 60
2020-03-14 21:00:00 9.4 3 Sudoeste 6 Sudoeste 0 -- -- 54
2020-03-14 20:00:00 11 4 Sur 21 Este 0 -- -- 47
2020-03-14 19:00:00 13.3 8 Sudeste 21 Sur 0 -- -- 42
2020-03-14 18:00:00 14.7 18 Sur 28 Sur 0 -- -- 41
2020-03-14 17:00:00 15 18 Sur 30 Sur 0 -- -- 43
2020-03-14 16:00:00 15.7 22 Sur 26 Sur 0 -- -- 42
2020-03-14 15:00:00 17.6 10 Sur 24 Sur 0 -- -- 33
2020-03-14 14:00:00 17.1 8 Sur 10 Sur 0 -- -- 17
2020-03-14 13:00:00 16.3 4 Sur 8 Sudoeste 0 -- -- 16
2020-03-14 12:00:00 13.3 4 Sudoeste 6 Sudoeste 0 -- -- 31
2020-03-14 11:00:00 11.2 3 Sudoeste 13 Norte 0 -- -- 40
2020-03-14 10:00:00 8.5 7 Norte 13 Norte 0 -- -- 49
2020-03-14 09:00:00 3.7 5 Norte 16 Norte 0 -- -- 59
2020-03-14 08:00:00 -1.3 11 Norte 14 Norte 0 -- -- 79
2020-03-14 07:00:00 -0.9 10 Norte 16 Norte 0 -- -- 75
2020-03-14 06:00:00 -0.4 6 Norte 13 Norte 0 -- -- 72
2020-03-14 05:00:00 -0.4 4 Norte 12 Norte 0 -- -- 69
2020-03-14 04:00:00 -0.4 7 Norte 12 Norte 0 -- -- 73
2020-03-14 03:00:00 0.6 3 Nordeste 10 Norte 0 -- -- 68
2020-03-14 02:00:00 1.2 0 Calma 8 Este 0 -- -- 69
2020-03-14 01:00:00 1.8 6 Norte 10 Norte 0 -- -- 67
2020-03-14 00:00:00 2.3 2 Norte 10 Norte 0 -- -- 70
2020-03-13 23:00:00 3.2 5 Nordeste 9 Noroeste 0 -- -- 69
2020-03-13 22:00:00 4.5 3 Este 5 Este 0 -- -- 67
2020-03-13 21:00:00 6.1 0 Calma 8 Este 0 -- -- 65
2020-03-13 20:00:00 7.8 4 Este 7 Nordeste 0 -- -- 61
2020-03-13 19:00:00 10.7 4 Oeste 27 Noroeste 0 -- -- 46
2020-03-13 18:00:00 13.9 12 Noroeste 22 Noroeste 0 -- -- 41
2020-03-13 17:00:00 17.9 6 Oeste 23 Noroeste 0 -- -- 40
2020-03-13 16:00:00 16.9 13 Noroeste 28 Noroeste 0 -- -- 41
2020-03-13 15:00:00 17 9 Oeste 20 Noroeste 0 -- -- 43
2020-03-13 14:00:00 15.8 8 Noroeste 18 Noroeste 0 -- -- 48
2020-03-13 13:00:00 14.3 7 Sudoeste 14 Sudoeste 0 -- -- 54
2020-03-13 12:00:00 11.5 9 Sudoeste 14 Sudoeste 0 -- -- 64
2020-03-13 11:00:00 10 5 Sudoeste 10 Norte 0 -- -- 67
2020-03-13 10:00:00 7.3 6 Noroeste 12 Noroeste 0 -- -- 75
2020-03-13 09:00:00 5.6 3 Noroeste 12 Noroeste 0 -- -- 80
2020-03-13 08:00:00 3.2 10 Noroeste 17 Noroeste 0 -- -- 92
2020-03-13 07:00:00 3.9 6 Noroeste 23 Noroeste 0 -- -- 85
2020-03-13 06:00:00 4.2 9 Noroeste 30 Noroeste 0 -- -- 83
2020-03-13 05:00:00 4.7 15 Noroeste 27 Noroeste 0 -- -- 81
2020-03-13 04:00:00 5.8 10 Noroeste 29 Noroeste 0 -- -- 78
2020-03-13 03:00:00 6 12 Noroeste 28 Noroeste 0 -- -- 79
2020-03-13 02:00:00 6.1 10 Noroeste 30 Noroeste 0 -- -- 81
2020-03-13 01:00:00 6.1 14 Noroeste 28 Noroeste 0 -- -- 83
2020-03-13 00:00:00 6 9 Noroeste 25 Noroeste 0 -- -- 84
2020-03-12 23:00:00 5.9 13 Noroeste 27 Noroeste 0 -- -- 84
2020-03-12 22:00:00 6 14 Noroeste 28 Noroeste 0 -- -- 84
2020-03-12 21:00:00 7 13 Noroeste 28 Noroeste 0 -- -- 80
2020-03-12 20:00:00 7.5 14 Noroeste 34 Noroeste 0 -- -- 78
2020-03-12 19:00:00 8.1 16 Noroeste 31 Noroeste 0 -- -- 76
2020-03-12 18:00:00 10.3 13 Noroeste 25 Norte 0 -- -- 69
2020-03-12 17:00:00 12.7 9 Noroeste 31 Noroeste 0 -- -- 64
2020-03-12 16:00:00 16.4 12 Noroeste 28 Noroeste 0 -- -- 57
2020-03-12 15:00:00 17.9 11 Noroeste 25 Noroeste 0 -- -- 51
2020-03-12 14:00:00 18.2 5 Oeste 26 Noroeste 0 -- -- 54
2020-03-12 13:00:00 17.8 6 Sudoeste 14 Sur 0 -- -- 49
2020-03-12 12:00:00 15 2 Sudoeste 5 Sur 0 -- -- 57
2020-03-12 11:00:00 11.1 2 Sudeste 5 Norte 0 -- -- 66
2020-03-12 10:00:00 10.5 3 Sudeste 9 Norte 0 -- -- 69
2020-03-12 09:00:00 8.8 3 Este 16 Norte 0 -- -- 75
2020-03-12 08:00:00 4.5 8 Norte 18 Norte 0 -- -- 92
2020-03-12 07:00:00 5.1 8 Norte 14 Norte 0 -- -- 92
2020-03-12 06:00:00 5.1 0 Calma 10 Norte 0 -- -- 92
2020-03-12 05:00:00 5.5 0 Calma 7 Norte 0 -- -- 89
2020-03-12 04:00:00 5.8 0 Calma 9 Norte 0 -- -- 88
2020-03-12 03:00:00 6.4 2 Este 3 Este 0 -- -- 87
2020-03-12 02:00:00 7.2 2 Este 4 Este 0 -- -- 84
2020-03-12 01:00:00 8.5 0 Calma 5 Este 0 -- -- 76
2020-03-12 00:00:00 9.8 2 Este 4 Este 0 -- -- 71
2020-03-11 23:00:00 10.5 2 Este 5 Este 0 -- -- 68
2020-03-11 22:00:00 10.8 4 Este 8 Este 0 -- -- 65
2020-03-11 21:00:00 11.9 5 Este 9 Nordeste 0 -- -- 61
2020-03-11 20:00:00 14.6 4 Sur 8 Sudoeste 0 -- -- 49
2020-03-11 19:00:00 17.2 4 Sudoeste 25 Oeste 0 -- -- 41
2020-03-11 18:00:00 19.8 14 Sudoeste 45 Sur 0 -- -- 34
2020-03-11 17:00:00 20.2 23 Sudoeste 42 Sudoeste 0 -- -- 34
2020-03-11 16:00:00 19.3 20 Sudoeste 47 Sudoeste 0 -- -- 35
2020-03-11 15:00:00 20.2 17 Sudeste 33 Sudeste 0 -- -- 37
2020-03-11 14:00:00 18.8 14 Sur 25 Sur 0 -- -- 35
2020-03-11 13:00:00 17.7 11 Sur 24 Sur 0 -- -- 41
2020-03-11 12:00:00 15.7 10 Sur 15 Sur 0 -- -- 44
2020-03-11 11:00:00 12.2 3 Sur 6 Oeste 0 -- -- 52
2020-03-11 10:00:00 10.5 2 Sur 12 Norte 0 -- -- 56
2020-03-11 09:00:00 7.3 8 Norte 13 Norte 0 -- -- 65
2020-03-11 08:00:00 2.3 4 Norte 13 Norte 0 -- -- 84
2020-03-11 07:00:00 3 10 Norte 13 Norte 0 -- -- 79
2020-03-11 06:00:00 3.7 6 Norte 13 Norte 0 -- -- 76
2020-03-11 05:00:00 4 4 Norte 12 Norte 0 -- -- 73
2020-03-11 04:00:00 4.9 3 Norte 13 Noroeste 0 -- -- 69
2020-03-11 03:00:00 5.2 3 Sudeste 5 Este 0 -- -- 69
2020-03-11 02:00:00 6.6 3 Norte 6 Este 0 -- -- 62
2020-03-11 01:00:00 6.4 0 Calma 6 Noroeste 0 -- -- 63
2020-03-11 00:00:00 7.2 0 Calma 6 Este 0 -- -- 57
2020-03-10 23:00:00 8.2 2 Nordeste 7 Este 0 -- -- 53
2020-03-10 22:00:00 8.1 3 Este 9 Este 0 -- -- 51
2020-03-10 21:00:00 9.6 3 Este 5 Este 0 -- -- 48
2020-03-10 20:00:00 11.7 4 Este 11 Este 0 -- -- 39
2020-03-10 19:00:00 16.6 3 Sudoeste 15 Sudoeste 0 -- -- 23
2020-03-10 18:00:00 20.3 6 Oeste 21 Oeste 0 -- -- 23
2020-03-10 17:00:00 21.8 8 Oeste 17 Oeste 0 -- -- 24
2020-03-10 16:00:00 20.6 8 Sudoeste 12 Sur 0 -- -- 24
2020-03-10 15:00:00 22.4 3 Sur 8 Sudoeste 0 -- -- 25
2020-03-10 14:00:00 18.7 4 Sudoeste 7 Sur 0 -- -- 38
2020-03-10 13:00:00 17.6 0 Calma 6 Sudoeste 0 -- -- 45
2020-03-10 12:00:00 14.4 2 Sudoeste 6 Sudeste 0 -- -- 54
2020-03-10 11:00:00 11.7 3 Sudoeste 12 Norte 0 -- -- 56
2020-03-10 10:00:00 9.5 2 Noroeste 15 Norte 0 -- -- 62
2020-03-10 09:00:00 6.6 7 Norte 12 Norte 0 -- -- 72
2020-03-10 08:00:00 2.5 7 Norte 10 Norte 0 -- -- 87
2020-03-10 07:00:00 3 3 Norte 14 Norte 0 -- -- 83
2020-03-10 06:00:00 3.3 8 Norte 16 Norte 0 -- -- 79
2020-03-10 05:00:00 4.2 0 Calma 9 Noroeste 0 -- -- 73
2020-03-10 04:00:00 4.4 2 Noroeste 4 Noroeste 0 -- -- 72
2020-03-10 03:00:00 4.7 3 Noroeste 12 Norte 0 -- -- 71
2020-03-10 02:00:00 4.6 10 Norte 13 Norte 0 -- -- 71
2020-03-10 01:00:00 4.2 0 Calma 9 Norte 0 -- -- 72
2020-03-10 00:00:00 4.9 0 Calma 7 Noroeste 0 -- -- 69
2020-03-09 23:00:00 6 5 Nordeste 8 Nordeste 0 -- -- 63
2020-03-09 22:00:00 6.2 2 Este 6 Norte 0 -- -- 63
2020-03-09 21:00:00 6.4 3 Nordeste 8 Noroeste 0 -- -- 61
2020-03-09 20:00:00 7.6 0 Calma 8 Noroeste 0 -- -- 57
2020-03-09 19:00:00 10.6 4 Oeste 24 Norte 0 -- -- 46
2020-03-09 18:00:00 13.6 5 Oeste 22 Oeste 0 -- -- 42
2020-03-09 17:00:00 14.9 8 Oeste 25 Norte 0 -- -- 37
2020-03-09 16:00:00 13.3 8 Noroeste 37 Noroeste 0 -- -- 35
2020-03-09 15:00:00 14.7 13 Noroeste 34 Oeste 0 -- -- 30
2020-03-09 14:00:00 13.3 10 Noroeste 25 Noroeste 0 -- -- 28
2020-03-09 13:00:00 12.3 5 Norte 21 Oeste 0 -- -- 29
2020-03-09 12:00:00 12.3 9 Oeste 26 Noroeste 0 -- -- 33
2020-03-09 11:00:00 9 3 Sur 13 Este 0 -- -- 51
2020-03-09 10:00:00 9 2 Sur 10 Este 0 -- -- 58
2020-03-09 09:00:00 4.2 8 Este 12 Este 0 -- -- 72
2020-03-09 08:00:00 1.5 4 Noroeste 11 Nordeste 0 -- -- 83
2020-03-09 07:00:00 1.5 6 Noroeste 17 Norte 0 -- -- 81
2020-03-09 06:00:00 1.9 6 Noroeste 14 Noroeste 0 -- -- 81
2020-03-09 05:00:00 2.3 3 Noroeste 8 Noroeste 0 -- -- 77
2020-03-09 04:00:00 2.8 4 Norte 20 Noroeste 0 -- -- 74
2020-03-09 03:00:00 4.3 10 Noroeste 33 Noroeste 0 -- -- 66
2020-03-09 02:00:00 4.1 7 Oeste 21 Noroeste 0 -- -- 71
2020-03-09 01:00:00 4.5 8 Noroeste 31 Noroeste 0 -- -- 66
2020-03-09 00:00:00 4.9 8 Noroeste 29 Oeste 0 -- -- 65